Time;durP1;ratioP1;P1;durP2;ratioP2;P2;SDS_P1;SDS_P2;PMS_P1;PMS_P2;Temp;Humidity;BMP_temperature;BMP_pressure;BME280_temperature;BME280_humidity;BME280_pressure;Samples;Min_cycle;Max_cycle;Signal;HPM_P1;HPM_P2
2023/02/08 00:00:57;;;;;;;15.85;8.43;;;-3.00;99.90;;;-3.64;100.00;99610.47;4965415;28;20055;-66
2023/02/08 00:03:26;;;;;;;19.60;9.52;;;-3.10;99.90;;;-3.71;100.00;99616.94;4961326;28;20051;-67
2023/02/08 00:05:53;;;;;;;16.50;7.43;;;-3.10;99.90;;;-3.76;100.00;99615.84;4963528;28;20201;-67
2023/02/08 00:08:20;;;;;;;23.20;9.75;;;-3.20;99.90;;;-3.78;100.00;99613.22;4962774;28;20073;-67
2023/02/08 00:10:48;;;;;;;18.77;8.48;;;-3.20;99.90;;;-3.86;100.00;99611.13;4964741;28;20073;-67
2023/02/08 00:13:15;;;;;;;16.98;8.80;;;-3.20;99.90;;;-3.89;100.00;99613.53;4967380;28;20061;-66
2023/02/08 00:15:44;;;;;;;18.83;9.00;;;-3.30;99.90;;;-3.81;100.00;99607.13;4962121;28;20574;-66
2023/02/08 00:18:12;;;;;;;18.15;8.73;;;-3.30;99.90;;;-3.65;100.00;99612.16;4963220;28;20050;-66
2023/02/08 00:20:42;;;;;;;17.40;8.20;;;-3.20;99.90;;;-3.64;100.00;99606.25;4961348;28;20058;-66
2023/02/08 00:23:11;;;;;;;21.95;9.30;;;-3.20;99.90;;;-3.51;100.00;99604.28;4949819;28;20096;-66
2023/02/08 00:25:40;;;;;;;19.48;8.95;;;-3.10;99.90;;;-3.51;100.00;99605.16;4968140;28;20054;-66
2023/02/08 00:28:12;;;;;;;17.20;8.07;;;-3.10;99.90;;;-3.41;100.00;99598.81;4963835;28;20496;-66
2023/02/08 00:30:40;;;;;;;15.00;8.45;;;-3.00;99.90;;;-3.44;100.00;99602.09;4976648;28;20138;-66
2023/02/08 00:33:08;;;;;;;20.50;9.38;;;-3.00;99.90;;;-3.53;100.00;99609.31;4978855;28;20532;-66
2023/02/08 00:35:35;;;;;;;16.45;8.65;;;-3.10;99.90;;;-3.44;100.00;99601.25;4958627;28;20051;-66
2023/02/08 00:38:02;;;;;;;16.10;8.75;;;-3.10;99.90;;;-3.46;100.00;99601.16;4967211;28;20047;-66
2023/02/08 00:40:29;;;;;;;16.98;9.05;;;-3.10;99.90;;;-3.48;100.00;99597.69;4962179;28;20055;-66
2023/02/08 00:42:56;;;;;;;20.25;9.30;;;-3.10;99.90;;;-3.40;100.00;99595.47;4961411;28;20054;-66
2023/02/08 00:45:23;;;;;;;14.68;7.63;;;-3.00;99.90;;;-3.36;100.00;99598.22;4958874;28;20419;-67
2023/02/08 00:47:50;;;;;;;14.95;8.05;;;-3.00;99.90;;;-3.33;100.00;99591.53;4963175;28;20055;-67
2023/02/08 00:50:17;;;;;;;15.13;7.97;;;-2.90;99.90;;;-3.30;100.00;99592.56;4963625;28;20050;-67
2023/02/08 00:52:44;;;;;;;18.02;8.02;;;-2.90;99.90;;;-3.22;100.00;99582.75;4964281;28;20051;-67
2023/02/08 00:55:11;;;;;;;17.80;7.72;;;-2.90;99.90;;;-3.20;100.00;99582.00;4960221;28;20089;-66
2023/02/08 00:57:38;;;;;;;17.30;7.88;;;-2.90;99.90;;;-3.26;100.00;99588.47;4959754;28;20143;-66
2023/02/08 01:00:07;;;;;;;13.88;6.68;;;-2.80;99.90;;;-3.40;100.00;99585.31;4960668;28;20053;-67
2023/02/08 01:02:37;;;;;;;18.48;8.85;;;-2.90;99.90;;;-3.49;100.00;99590.88;4959684;28;20059;-67
2023/02/08 01:05:05;;;;;;;17.70;8.40;;;-2.90;99.90;;;-3.51;100.00;99589.03;4958201;28;20051;-66
2023/02/08 01:07:32;;;;;;;17.00;8.88;;;-3.00;99.90;;;-3.39;100.00;99587.94;4962028;28;20051;-66
2023/02/08 01:09:59;;;;;;;15.55;7.90;;;-3.00;99.90;;;-3.38;100.00;99592.19;4965067;28;20053;-66
2023/02/08 01:12:26;;;;;;;16.05;7.68;;;-3.00;99.90;;;-3.34;100.00;99587.28;4961416;28;20047;-66
2023/02/08 01:14:53;;;;;;;19.10;7.30;;;-3.00;99.90;;;-3.38;100.00;99582.03;4960267;28;20607;-66
2023/02/08 01:17:20;;;;;;;14.95;7.63;;;-3.00;99.90;;;-3.46;100.00;99585.94;4964234;28;20047;-66
2023/02/08 01:19:47;;;;;;;19.80;7.72;;;-3.00;99.90;;;-3.38;100.00;99582.03;4962121;28;20051;-66
2023/02/08 01:22:14;;;;;;;19.15;7.00;;;-3.00;99.90;;;-3.39;100.00;99580.31;4957217;28;20055;-67
2023/02/08 01:24:41;;;;;;;15.85;7.95;;;-3.00;99.90;;;-3.46;100.00;99572.38;4960236;28;20502;-66
2023/02/08 01:27:08;;;;;;;15.48;7.25;;;-3.00;99.90;;;-3.38;100.00;99576.09;4965467;28;20059;-66
2023/02/08 01:29:35;;;;;;;15.18;7.75;;;-3.00;99.90;;;-3.46;100.00;99569.84;4962031;28;20769;-66
2023/02/08 01:32:02;;;;;;;16.98;8.02;;;-3.00;99.90;;;-3.49;100.00;99570.56;4960497;28;20047;-66
2023/02/08 01:34:29;;;;;;;14.68;6.88;;;-3.10;99.90;;;-3.49;100.00;99570.56;4963058;28;20047;-66
2023/02/08 01:36:56;;;;;;;16.67;7.63;;;-3.00;99.90;;;-3.45;100.00;99564.81;4963721;28;20471;-66
2023/02/08 01:39:23;;;;;;;17.92;7.68;;;-3.10;99.90;;;-3.47;100.00;99560.47;4976986;28;20050;-66
2023/02/08 01:41:50;;;;;;;12.55;6.55;;;-3.10;99.90;;;-3.36;100.00;99556.72;4962514;28;20409;-66
2023/02/08 01:44:17;;;;;;;13.15;7.28;;;-3.10;99.90;;;-3.51;100.00;99554.41;4960246;28;20061;-66
2023/02/08 01:46:50;;;;;;;18.38;7.53;;;-3.10;99.90;;;-3.50;100.00;99553.56;4964154;28;20137;-66
2023/02/08 01:49:29;;;;;;;16.67;6.75;;;-3.10;99.90;;;-3.43;100.00;99553.03;4960929;28;20058;-66
2023/02/08 01:52:09;;;;;;;15.60;6.25;;;-3.00;99.90;;;-3.30;100.00;99544.31;4960320;28;20065;-66
2023/02/08 01:54:48;;;;;;;15.40;6.78;;;-2.90;99.90;;;-3.36;100.00;99555.06;4958494;28;20046;-66
2023/02/08 01:57:15;;;;;;;13.52;6.63;;;-2.90;99.90;;;-3.33;100.00;99554.34;4959696;28;20066;-66
2023/02/08 01:59:54;;;;;;;18.02;6.97;;;-2.90;99.90;;;-3.28;100.00;99557.09;4964595;28;20054;-67
2023/02/08 02:02:22;;;;;;;14.63;7.38;;;-2.90;99.90;;;-3.26;100.00;99555.47;4974393;28;20153;-67
2023/02/08 02:04:51;;;;;;;17.98;7.30;;;-2.90;99.90;;;-3.39;100.00;99554.94;4972239;28;20675;-66
2023/02/08 02:07:20;;;;;;;13.68;7.43;;;-2.90;99.90;;;-3.50;100.00;99552.72;4974437;28;20134;-66
2023/02/08 02:10:08;;;;;;;16.80;8.30;;;-3.00;99.90;;;-3.57;100.00;99554.09;4960605;28;20054;-66
2023/02/08 02:12:38;;;;;;;13.27;7.20;;;-3.10;99.90;;;-3.52;100.00;99550.09;4958159;28;20059;-66
2023/02/08 02:15:07;;;;;;;14.02;6.90;;;-3.10;99.90;;;-3.50;100.00;99553.56;4959298;28;20046;-67
2023/02/08 02:17:36;;;;;;;16.27;6.68;;;-3.10;99.90;;;-3.46;100.00;99537.69;4959580;28;20202;-67
2023/02/08 02:20:16;;;;;;;13.80;6.55;;;-3.00;99.90;;;-3.39;100.00;99536.28;4958888;28;20611;-67
2023/02/08 02:22:54;;;;;;;12.95;6.93;;;-3.00;99.90;;;-3.47;100.00;99545.22;4955863;28;20051;-66
2023/02/08 02:25:55;;;;;;;15.63;7.35;;;-3.00;99.90;;;-3.41;100.00;99546.38;4957732;28;20767;-66
2023/02/08 02:29:28;;;;;;;16.42;7.78;;;-3.10;99.90;;;-3.37;100.00;99542.31;4962620;28;20055;-66
2023/02/08 02:32:07;;;;;;;14.93;6.30;;;-3.00;99.90;;;-3.39;100.00;99537.16;4949346;28;20359;-66
2023/02/08 02:34:53;;;;;;;12.13;5.90;;;-3.10;99.90;;;-3.31;100.00;99539.16;4949490;28;20138;-66
2023/02/08 02:37:33;;;;;;;12.85;5.78;;;-3.00;99.90;;;-3.39;100.00;99533.75;4961628;28;20054;-67
2023/02/08 02:40:14;;;;;;;16.30;7.57;;;-3.00;99.90;;;-3.59;100.00;99540.47;4965488;28;20055;-66
2023/02/08 02:43:40;;;;;;;14.10;7.35;;;-3.10;99.90;;;-3.62;100.00;99527.66;4972768;28;20047;-66
2023/02/08 02:46:53;;;;;;;20.80;6.95;;;-3.20;99.90;;;-3.55;100.00;99529.66;4940731;28;20075;-66
2023/02/08 02:49:35;;;;;;;15.70;6.32;;;-3.10;99.90;;;-3.52;100.00;99534.88;4949381;28;21069;-66
2023/02/08 02:52:10;;;;;;;14.10;5.93;;;-3.10;99.90;;;-3.55;100.00;99529.66;4960930;28;20500;-66
2023/02/08 02:54:44;;;;;;;15.40;6.90;;;-3.00;99.90;;;-3.61;100.00;99525.16;4957252;28;20727;-66
2023/02/08 02:57:17;;;;;;;14.65;5.68;;;-3.10;99.90;;;-3.63;100.00;99525.91;4963912;28;20113;-66
2023/02/08 02:59:45;;;;;;;18.10;7.00;;;-3.10;99.90;;;-3.67;100.00;99522.38;4974351;28;20170;-66
2023/02/08 03:02:13;;;;;;;14.88;7.00;;;-3.20;99.90;;;-3.74;100.00;99514.41;4963425;28;20089;-66
2023/02/08 03:04:40;;;;;;;16.55;7.32;;;-3.20;99.90;;;-3.72;100.00;99521.28;4963063;28;20137;-66
2023/02/08 03:07:19;;;;;;;15.07;6.93;;;-3.20;99.90;;;-3.75;100.00;99517.75;4961096;28;20050;-66
2023/02/08 03:10:18;;;;;;;14.57;7.03;;;-3.20;99.90;;;-3.88;100.00;99518.84;4960122;28;20134;-66
2023/02/08 03:13:10;;;;;;;14.50;7.35;;;-3.30;99.90;;;-4.02;100.00;99523.28;4959721;28;20074;-66
2023/02/08 03:16:11;;;;;;;15.50;7.28;;;-3.40;99.90;;;-3.95;100.00;99516.81;4958689;28;20056;-66
2023/02/08 03:19:11;;;;;;;15.80;6.82;;;-3.50;99.90;;;-4.04;100.00;99523.22;4960713;28;20055;-66
2023/02/08 03:22:12;;;;;;;12.88;6.13;;;-3.50;99.90;;;-4.10;100.00;99519.53;4959298;28;20506;-67
2023/02/08 03:24:53;;;;;;;14.05;6.93;;;-3.50;99.90;;;-4.19;100.00;99522.50;4960852;28;20051;-67
2023/02/08 03:28:00;;;;;;;12.77;6.20;;;-3.60;99.90;;;-4.22;100.00;99527.41;4959502;28;20064;-67
2023/02/08 03:31:00;;;;;;;15.40;7.40;;;-3.70;99.90;;;-4.37;100.00;99527.56;4957681;28;20117;-67
2023/02/08 03:34:00;;;;;;;14.63;6.35;;;-3.70;99.90;;;-4.45;100.00;99527.22;4951487;28;20581;-66
2023/02/08 03:36:56;;;;;;;15.77;6.80;;;-3.80;99.90;;;-4.34;100.00;99521.78;4959072;28;20051;-67
2023/02/08 03:39:28;;;;;;;17.92;6.35;;;-3.80;99.90;;;-4.31;100.00;99530.41;4975619;28;20099;-66
2023/02/08 03:42:04;;;;;;;14.95;6.28;;;-3.80;99.90;;;-4.29;100.00;99530.47;4959841;28;20047;-66
2023/02/08 03:44:47;;;;;;;15.35;6.90;;;-3.80;99.90;;;-4.30;100.00;99536.34;4957624;28;20739;-67
2023/02/08 03:47:25;;;;;;;12.65;5.95;;;-3.80;99.90;;;-4.28;100.00;99534.75;4963416;28;20067;-67
2023/02/08 03:49:57;;;;;;;10.18;5.65;;;-3.80;99.90;;;-4.33;100.00;99533.63;4957915;28;20046;-66
2023/02/08 03:52:27;;;;;;;16.98;7.18;;;-3.80;99.90;;;-4.33;100.00;99536.16;4963287;28;20153;-67
2023/02/08 03:55:14;;;;;;;14.10;6.45;;;-3.80;99.90;;;-4.47;100.00;99535.50;4955488;28;20438;-67
2023/02/08 03:58:25;;;;;;;15.80;6.57;;;-3.80;99.90;;;-4.33;100.00;99534.53;4962715;28;20142;-67
2023/02/08 04:00:58;;;;;;;15.90;6.35;;;-3.90;99.90;;;-4.30;100.00;99536.34;4950460;28;20430;-66
2023/02/08 04:03:28;;;;;;;15.43;6.95;;;-3.80;99.90;;;-4.32;100.00;99533.72;4958489;28;20055;-67
2023/02/08 04:05:55;;;;;;;16.40;7.13;;;-3.80;99.90;;;-4.35;100.00;99531.06;4972687;28;20154;-67
2023/02/08 04:08:23;;;;;;;18.15;7.68;;;-3.80;99.90;;;-4.33;100.00;99534.53;4974552;28;20055;-67
2023/02/08 04:10:50;;;;;;;19.75;8.10;;;-3.80;99.90;;;-4.35;100.00;99531.06;4961461;28;20130;-66
2023/02/08 04:13:17;;;;;;;15.07;6.93;;;-3.80;99.90;;;-4.32;100.00;99522.72;4962611;28;20469;-66
2023/02/08 04:15:44;;;;;;;13.80;6.68;;;-3.80;99.90;;;-4.30;100.00;99532.13;4964458;28;20076;-67
2023/02/08 04:18:11;;;;;;;16.48;8.18;;;-3.80;99.90;;;-4.37;100.00;99525.03;4964384;28;20117;-67
2023/02/08 04:20:38;;;;;;;16.42;7.07;;;-3.80;99.90;;;-4.33;100.00;99531.09;4967317;28;20079;-67
2023/02/08 04:23:06;;;;;;;16.10;6.93;;;-3.80;99.90;;;-4.31;100.00;99524.44;4961607;28;20633;-67
2023/02/08 04:25:32;;;;;;;16.85;7.80;;;-3.80;99.90;;;-4.47;100.00;99516.13;4964920;28;20077;-67
2023/02/08 04:27:59;;;;;;;19.40;8.35;;;-3.80;99.90;;;-4.41;100.00;99524.00;4960768;28;20916;-67
2023/02/08 04:30:26;;;;;;;20.40;8.82;;;-3.80;99.90;;;-4.46;100.00;99533.06;4976082;28;20115;-66
2023/02/08 04:32:53;;;;;;;16.60;8.10;;;-3.90;99.90;;;-4.56;100.00;99525.81;4974752;28;20042;-67
2023/02/08 04:35:20;;;;;;;19.17;7.35;;;-3.90;99.90;;;-4.55;100.00;99521.63;4965050;28;21948;-67
2023/02/08 04:37:47;;;;;;;15.75;6.60;;;-3.90;99.90;;;-4.60;100.00;99515.47;4960392;28;20051;-67
2023/02/08 04:40:14;;;;;;;15.23;6.97;;;-4.00;99.90;;;-4.55;100.00;99511.47;4962882;28;20470;-66
2023/02/08 04:42:41;;;;;;;13.85;6.93;;;-4.00;99.90;;;-4.46;100.00;99511.91;4960066;28;20063;-66
2023/02/08 04:45:09;;;;;;;25.33;7.28;;;-3.90;99.90;;;-4.38;100.00;99514.81;4971644;28;20046;-66
2023/02/08 04:47:36;;;;;;;15.98;7.57;;;-3.90;99.90;;;-4.36;100.00;99518.28;4962526;28;20061;-66
2023/02/08 04:50:05;;;;;;;16.38;6.70;;;-3.80;99.90;;;-4.29;100.00;99518.69;4959639;28;20073;-66
2023/02/08 04:52:32;;;;;;;15.00;6.93;;;-3.80;99.90;;;-4.33;100.00;99514.25;4961760;28;20054;-66
2023/02/08 04:54:59;;;;;;;15.70;7.88;;;-3.90;99.90;;;-4.34;100.00;99515.03;4956675;28;20502;-66
2023/02/08 04:57:26;;;;;;;12.52;6.95;;;-3.80;99.90;;;-4.40;100.00;99502.09;4963946;28;20042;-66
2023/02/08 04:59:53;;;;;;;12.73;5.97;;;-3.90;99.90;;;-4.31;100.00;99510.13;4959714;28;20046;-66
2023/02/08 05:02:20;;;;;;;17.73;6.60;;;-3.80;99.90;;;-4.18;100.00;99500.53;4958898;28;20151;-66
2023/02/08 05:04:47;;;;;;;14.88;6.30;;;-3.80;99.90;;;-4.20;100.00;99495.41;4963834;28;20055;-66
2023/02/08 05:07:14;;;;;;;14.98;7.10;;;-3.80;99.90;;;-4.19;100.00;99501.34;4971602;28;20043;-66
2023/02/08 05:09:41;;;;;;;17.15;6.72;;;-3.90;99.90;;;-4.19;100.00;99496.28;4961322;28;20140;-66
2023/02/08 05:12:08;;;;;;;16.60;7.43;;;-3.90;99.90;;;-4.22;100.00;99494.44;4959721;28;20047;-66
2023/02/08 05:14:35;;;;;;;16.10;7.38;;;-3.90;99.90;;;-4.22;100.00;99490.28;4959537;28;20070;-66
2023/02/08 05:17:02;;;;;;;18.25;7.50;;;-3.90;99.90;;;-4.16;100.00;99482.06;4963389;28;20134;-66
2023/02/08 05:19:29;;;;;;;18.40;7.28;;;-3.90;99.90;;;-4.33;100.00;99491.44;4960569;28;20135;-66
2023/02/08 05:21:56;;;;;;;19.45;8.35;;;-3.90;99.90;;;-4.41;100.00;99490.19;4960874;28;20054;-66
2023/02/08 05:24:23;;;;;;;17.92;8.07;;;-4.00;99.90;;;-4.35;100.00;99484.56;4958783;28;20070;-66
2023/02/08 05:26:50;;;;;;;15.70;7.53;;;-4.00;99.90;;;-4.52;100.00;99486.28;4957471;28;20133;-66
2023/02/08 05:29:17;;;;;;;14.88;7.68;;;-4.00;99.90;;;-4.56;100.00;99482.75;4961015;28;20524;-66
2023/02/08 05:31:44;;;;;;;16.40;7.65;;;-4.00;99.90;;;-4.46;100.00;99482.38;4960133;28;20339;-66
2023/02/08 05:34:11;;;;;;;15.65;7.30;;;-4.00;99.90;;;-4.48;100.00;99485.63;4961591;28;20047;-66
2023/02/08 05:36:38;;;;;;;14.70;6.55;;;-4.00;99.90;;;-4.53;100.00;99482.88;4965948;28;20055;-66
2023/02/08 05:39:05;;;;;;;13.20;6.07;;;-4.00;99.90;;;-4.21;100.00;99478.47;4959725;28;20414;-66
2023/02/08 05:41:32;;;;;;;14.77;7.03;;;-3.80;99.90;;;-4.24;100.00;99486.78;4964286;28;20098;-66
2023/02/08 05:43:59;;;;;;;11.90;5.63;;;-3.80;99.90;;;-4.14;100.00;99482.16;4964306;28;20565;-66
2023/02/08 05:46:26;;;;;;;14.73;7.13;;;-3.80;99.90;;;-4.14;100.00;99485.53;4961594;28;20059;-66
2023/02/08 05:48:54;;;;;;;19.13;7.15;;;-3.70;99.90;;;-4.06;100.00;99486.78;4960562;28;20050;-66
2023/02/08 05:51:21;;;;;;;15.50;6.28;;;-3.70;99.90;;;-4.04;100.00;99489.38;4959748;28;20390;-66
2023/02/08 05:53:48;;;;;;;18.80;8.10;;;-3.60;99.90;;;-4.04;100.00;99485.19;4958813;28;20043;-66
2023/02/08 05:56:15;;;;;;;15.18;6.88;;;-3.60;99.90;;;-3.96;100.00;99484.66;4960043;28;20061;-66
2023/02/08 05:58:42;;;;;;;15.02;6.45;;;-3.50;99.90;;;-4.00;100.00;99483.63;4963337;28;20054;-66
2023/02/08 06:01:10;;;;;;;14.75;6.55;;;-3.50;99.90;;;-3.98;100.00;99479.50;4962626;28;20071;-66
2023/02/08 06:03:39;;;;;;;13.13;5.63;;;-3.50;99.90;;;-3.91;100.00;99486.59;4975309;28;20058;-66
2023/02/08 06:06:06;;;;;;;12.82;6.93;;;-3.40;99.90;;;-3.72;100.00;99487.41;4976201;28;20050;-66
2023/02/08 06:08:33;;;;;;;14.88;6.38;;;-3.40;99.90;;;-3.66;100.00;99485.16;4957865;28;20418;-66
2023/02/08 06:11:00;;;;;;;14.43;6.50;;;-3.20;99.90;;;-3.57;100.00;99478.81;4958296;28;20062;-66
2023/02/08 06:13:28;;;;;;;12.20;6.00;;;-3.20;99.90;;;-3.58;100.00;99488.91;4958478;28;20086;-66
2023/02/08 06:15:55;;;;;;;13.88;6.75;;;-3.20;99.90;;;-3.56;100.00;99484.75;4955363;28;20051;-66
2023/02/08 06:18:22;;;;;;;12.38;5.78;;;-3.20;99.90;;;-3.50;100.00;99479.97;4964148;28;20047;-67
2023/02/08 06:20:53;;;;;;;16.30;6.72;;;-3.10;99.90;;;-3.40;100.00;99487.19;4960328;28;20126;-66
2023/02/08 06:23:21;;;;;;;13.02;6.63;;;-3.00;99.90;;;-3.37;100.00;99484.78;4963164;28;20047;-66
2023/02/08 06:25:49;;;;;;;12.85;6.55;;;-2.90;99.90;;;-3.36;100.00;99483.97;4946861;28;20047;-66
2023/02/08 06:28:16;;;;;;;13.10;6.30;;;-2.90;99.90;;;-3.34;100.00;99489.13;4972955;28;20529;-66
2023/02/08 06:30:47;;;;;;;13.65;6.53;;;-2.90;99.90;;;-3.22;100.00;99493.84;4959224;28;20059;-66
2023/02/08 06:33:15;;;;;;;15.18;6.18;;;-2.80;99.90;;;-3.30;100.00;99492.66;4957920;28;20509;-66
2023/02/08 06:35:52;;;;;;;14.55;6.70;;;-2.80;99.90;;;-3.33;100.00;99495.06;4955188;28;20047;-66
2023/02/08 06:38:20;;;;;;;15.07;5.95;;;-2.70;99.90;;;-3.13;100.00;99494.22;4957119;28;20102;-66
2023/02/08 06:40:48;;;;;;;14.45;7.07;;;-2.70;99.90;;;-3.21;100.00;99496.47;4959003;28;20925;-66
2023/02/08 06:43:16;;;;;;;11.40;5.38;;;-2.70;99.90;;;-3.09;100.00;99498.66;4958914;28;20442;-66
2023/02/08 06:45:46;;;;;;;12.15;5.97;;;-2.60;99.90;;;-3.07;100.00;99497.03;4956887;28;20652;-66
2023/02/08 06:48:14;;;;;;;13.18;6.38;;;-2.60;99.90;;;-3.06;100.00;99487.75;4962860;28;20434;-66
2023/02/08 06:50:41;;;;;;;13.48;6.18;;;-2.60;99.90;;;-3.02;100.00;99482.00;4960008;28;20137;-66
2023/02/08 06:53:09;;;;;;;9.98;5.28;;;-2.50;99.90;;;-3.06;100.00;99483.53;4960699;28;20047;-66
2023/02/08 06:55:37;;;;;;;9.85;5.00;;;-2.50;99.90;;;-2.98;100.00;99479.66;4956758;28;20051;-66
2023/02/08 06:58:04;;;;;;;14.50;6.28;;;-2.50;99.90;;;-2.92;100.00;99485.78;4960348;28;20082;-66
2023/02/08 07:00:31;;;;;;;13.43;6.80;;;-2.40;99.90;;;-2.97;100.00;99483.03;4958848;28;20078;-66
2023/02/08 07:02:59;;;;;;;9.98;5.70;;;-2.40;99.90;;;-2.97;100.00;99488.13;4959001;28;20616;-66
2023/02/08 07:05:26;;;;;;;15.43;5.95;;;-2.40;99.90;;;-2.93;100.00;99489.13;4962612;28;20157;-66
2023/02/08 07:07:53;;;;;;;13.30;6.40;;;-2.50;99.90;;;-3.06;100.00;99491.16;4960525;28;20050;-66
2023/02/08 07:10:20;;;;;;;13.90;6.10;;;-2.50;99.90;;;-2.96;100.00;99490.75;4957283;28;20133;-67
2023/02/08 07:12:47;;;;;;;13.52;6.03;;;-2.40;99.90;;;-3.00;100.00;99493.09;4955988;28;20078;-66
2023/02/08 07:15:14;;;;;;;12.95;6.15;;;-2.50;99.90;;;-2.94;100.00;99493.34;4958071;28;20081;-66
2023/02/08 07:17:41;;;;;;;11.93;5.72;;;-2.40;99.90;;;-3.01;100.00;99492.22;4956267;28;20146;-66
2023/02/08 07:20:10;;;;;;;12.65;6.20;;;-2.40;99.90;;;-3.02;100.00;99489.63;4960529;28;20537;-66
2023/02/08 07:22:38;;;;;;;14.32;6.38;;;-2.40;99.90;;;-3.04;100.00;99489.53;4960551;28;20076;-66
2023/02/08 07:25:07;;;;;;;11.20;6.05;;;-2.50;99.90;;;-3.04;100.00;99486.13;4955250;28;20055;-66
2023/02/08 07:27:35;;;;;;;14.98;6.68;;;-2.40;99.90;;;-3.00;100.00;99485.47;4961069;28;20518;-66
2023/02/08 07:30:02;;;;;;;11.50;5.68;;;-2.40;99.90;;;-3.02;100.00;99492.16;4972339;28;20174;-66
2023/02/08 07:32:32;;;;;;;11.35;5.40;;;-2.40;99.90;;;-3.01;100.00;99494.78;4958906;28;20043;-66
2023/02/08 07:35:00;;;;;;;15.10;6.78;;;-2.40;99.90;;;-3.07;100.00;99488.56;4956322;28;20758;-66
2023/02/08 07:37:27;;;;;;;11.55;5.78;;;-2.50;99.90;;;-3.10;100.00;99488.41;4957817;28;20498;-66
2023/02/08 07:39:55;;;;;;;14.88;6.28;;;-2.40;99.90;;;-3.12;100.00;99490.00;4957819;28;20138;-66
2023/02/08 07:42:22;;;;;;;15.50;6.82;;;-2.50;99.90;;;-2.95;100.00;99489.94;4956670;28;20059;-66
2023/02/08 07:44:49;;;;;;;13.20;6.53;;;-2.40;99.90;;;-2.97;100.00;99488.13;4975731;28;20051;-66
2023/02/08 07:47:16;;;;;;;13.52;6.30;;;-2.40;99.90;;;-3.03;100.00;99491.28;4976254;28;20130;-66
2023/02/08 07:49:43;;;;;;;10.45;5.60;;;-2.40;99.90;;;-3.19;100.00;99494.00;4960725;28;20046;-66
2023/02/08 07:52:10;;;;;;;14.82;6.40;;;-2.50;99.90;;;-3.10;100.00;99493.50;4962919;28;20696;-66
2023/02/08 07:54:37;;;;;;;11.52;5.93;;;-2.50;99.90;;;-3.08;100.00;99489.34;4964301;28;20058;-66
2023/02/08 07:57:04;;;;;;;13.98;6.30;;;-2.50;99.90;;;-2.92;100.00;99486.63;4960085;28;20604;-66
2023/02/08 07:59:31;;;;;;;13.60;6.95;;;-2.50;99.90;;;-2.99;100.00;99487.19;4961175;28;20057;-66
2023/02/08 08:01:58;;;;;;;12.27;6.53;;;-2.40;99.90;;;-2.99;100.00;99492.28;4962118;28;20063;-66
2023/02/08 08:04:25;;;;;;;12.38;5.88;;;-2.50;99.90;;;-3.02;100.00;99487.06;4962028;28;20050;-66
2023/02/08 08:06:52;;;;;;;11.95;5.97;;;-2.40;99.90;;;-2.90;100.00;99481.63;4962874;28;20065;-66
2023/02/08 08:09:19;;;;;;;12.32;6.78;;;-2.40;99.90;;;-2.82;100.00;99478.59;4960909;28;20055;-66
2023/02/08 08:11:46;;;;;;;10.75;5.80;;;-2.40;99.90;;;-2.83;100.00;99486.16;4961347;28;20490;-66
2023/02/08 08:14:13;;;;;;;12.25;6.55;;;-2.30;99.90;;;-2.86;100.00;99480.97;4961542;28;20123;-66
2023/02/08 08:16:42;;;;;;;13.73;6.10;;;-2.30;99.90;;;-2.85;100.00;99483.56;4966403;28;20057;-66
2023/02/08 08:19:09;;;;;;;10.05;5.75;;;-2.30;99.90;;;-2.75;100.00;99480.59;4962702;28;20512;-66
2023/02/08 08:21:36;;;;;;;12.23;6.30;;;-2.30;99.90;;;-2.75;100.00;99482.28;4965241;28;20070;-66
2023/02/08 08:24:03;;;;;;;10.32;5.35;;;-2.20;99.90;;;-2.60;100.00;99485.44;4963206;28;20446;-66
2023/02/08 08:26:30;;;;;;;11.68;5.93;;;-2.10;99.90;;;-2.55;100.00;99478.00;4973067;28;20082;-66
2023/02/08 08:28:57;;;;;;;11.65;5.53;;;-2.00;99.90;;;-2.64;100.00;99475.94;4963095;28;20425;-66
2023/02/08 08:31:24;;;;;;;14.73;6.10;;;-1.90;99.90;;;-2.49;100.00;99477.38;4961012;28;20055;-66
2023/02/08 08:33:51;;;;;;;11.73;5.50;;;-1.90;99.90;;;-2.48;100.00;99479.97;4961395;28;20047;-66
2023/02/08 08:36:18;;;;;;;11.77;5.78;;;-1.80;99.90;;;-2.24;100.00;99476.66;4976748;28;20053;-66
2023/02/08 08:38:45;;;;;;;12.30;6.13;;;-1.80;99.90;;;-2.21;100.00;99474.22;4961180;28;20050;-66
2023/02/08 08:41:20;;;;;;;15.25;6.38;;;-1.70;99.90;;;-2.09;100.00;99471.31;4960977;28;20053;-66
2023/02/08 08:43:48;;;;;;;15.50;6.18;;;-1.60;99.90;;;-2.03;100.00;99471.50;4961625;28;20074;-66
2023/02/08 08:46:15;;;;;;;12.30;5.60;;;-1.50;99.90;;;-2.01;100.00;99469.91;4961632;28;20059;-66
2023/02/08 08:48:43;;;;;;;13.52;6.75;;;-1.40;99.90;;;-1.95;100.00;99465.03;4963105;28;20077;-66
2023/02/08 08:51:11;;;;;;;11.15;6.28;;;-1.30;99.90;;;-1.85;100.00;99461.16;4965516;28;20047;-67
2023/02/08 08:53:38;;;;;;;11.25;6.13;;;-1.20;99.90;;;-1.79;100.00;99457.16;4960855;28;20416;-66
2023/02/08 08:56:06;;;;;;;11.02;5.80;;;-1.10;99.90;;;-1.68;100.00;99467.75;4961526;28;20130;-66
2023/02/08 08:58:33;;;;;;;12.02;6.40;;;-1.00;99.90;;;-1.59;100.00;99467.22;4961149;28;20058;-66
2023/02/08 09:01:00;;;;;;;12.15;5.85;;;-1.00;99.90;;;-1.48;100.00;99468.47;4964261;28;20057;-66
2023/02/08 09:03:28;;;;;;;11.75;6.18;;;-0.90;99.90;;;-1.45;100.00;99470.25;4962002;28;20482;-66
2023/02/08 09:05:56;;;;;;;14.70;6.65;;;-0.90;99.90;;;-1.50;100.00;99473.50;4961214;28;20793;-66
2023/02/08 09:08:23;;;;;;;11.57;5.80;;;-0.80;99.90;;;-1.32;100.00;99462.25;4961082;28;20158;-66
2023/02/08 09:10:50;;;;;;;12.10;5.68;;;-0.80;99.90;;;-1.29;100.00;99467.44;4962123;28;20047;-66
2023/02/08 09:13:20;;;;;;;11.80;6.75;;;-0.60;99.90;;;-1.22;100.00;99451.53;4959034;28;20109;-66
2023/02/08 09:15:48;;;;;;;11.52;6.05;;;-0.60;99.90;;;-1.14;100.00;99452.69;4960467;28;20051;-66
2023/02/08 09:18:16;;;;;;;10.45;5.82;;;-0.60;99.90;;;-0.99;100.00;99449.75;4963622;28;20059;-66
2023/02/08 09:20:43;;;;;;;15.20;6.53;;;-0.40;99.90;;;-0.92;100.00;99448.28;4961305;28;20050;-66
2023/02/08 09:23:11;;;;;;;13.50;6.30;;;-0.30;99.90;;;-0.72;100.00;99449.81;4964685;28;20051;-66
2023/02/08 09:25:38;;;;;;;9.82;5.38;;;-0.20;99.90;;;-0.62;100.00;99453.50;4958320;28;20058;-66
2023/02/08 09:28:05;;;;;;;12.68;5.75;;;-0.10;99.90;;;-0.66;100.00;99447.47;4964043;28;20078;-66
2023/02/08 09:30:33;;;;;;;10.75;5.75;;;0.00;99.90;;;-0.49;100.00;99447.13;4972662;28;20149;-66
2023/02/08 09:33:00;;;;;;;10.32;5.38;;;0.00;99.90;;;-0.35;100.00;99457.75;4959569;28;20074;-66
2023/02/08 09:35:27;;;;;;;11.10;5.25;;;0.20;99.90;;;-0.39;100.00;99450.81;4962476;28;20085;-66
2023/02/08 09:37:56;;;;;;;10.52;5.32;;;0.20;99.90;;;-0.31;100.00;99459.59;4966289;28;20144;-66
2023/02/08 09:40:32;;;;;;;10.57;5.43;;;0.30;99.90;;;-0.24;100.00;99457.28;4960138;28;20398;-66
2023/02/08 09:43:17;;;;;;;10.50;5.18;;;0.40;99.90;;;-0.19;100.00;99446.34;4960573;28;20047;-66
2023/02/08 09:46:02;;;;;;;10.18;5.55;;;0.50;99.90;;;-0.07;100.00;99445.03;4965916;28;20051;-66
2023/02/08 09:48:37;;;;;;;10.93;5.32;;;0.50;99.90;;;0.00;100.00;99453.75;4960545;28;20106;-66
2023/02/08 09:51:34;;;;;;;10.88;5.13;;;0.60;99.90;;;0.04;100.00;99447.03;4961630;28;20417;-66
2023/02/08 09:54:36;;;;;;;9.82;5.07;;;0.70;99.90;;;0.07;100.00;99444.56;4961496;28;20482;-66
2023/02/08 09:57:12;;;;;;;10.38;4.90;;;0.70;99.90;;;0.15;100.00;99443.97;4959806;28;20054;-66
2023/02/08 09:59:46;;;;;;;8.23;4.15;;;0.80;99.90;;;0.27;100.00;99440.88;4977951;28;20047;-66
2023/02/08 10:02:31;;;;;;;13.23;4.35;;;0.90;99.90;;;0.47;100.00;99438.91;4957836;28;20484;-66
2023/02/08 10:05:13;;;;;;;10.45;4.82;;;1.00;99.90;;;0.50;100.00;99444.13;4957861;28;20076;-66
2023/02/08 10:07:42;;;;;;;10.40;5.00;;;1.10;99.90;;;0.50;100.00;99440.66;4958477;28;20058;-66
2023/02/08 10:10:47;;;;;;;13.13;4.75;;;1.10;99.90;;;0.63;100.00;99447.84;4958710;28;20119;-66
2023/02/08 10:13:46;;;;;;;14.57;4.72;;;1.20;99.90;;;0.63;100.00;99440.19;4960204;28;20075;-66
2023/02/08 10:16:21;;;;;;;8.18;4.55;;;1.20;99.20;;;0.87;100.00;99437.41;4950452;28;20054;-66
2023/02/08 10:19:09;;;;;;;9.25;4.38;;;1.30;99.10;;;0.89;100.00;99427.22;4960900;28;20043;-66
2023/02/08 10:21:52;;;;;;;7.95;4.45;;;1.40;98.30;;;1.05;100.00;99429.34;4946447;28;20129;-66
2023/02/08 10:25:15;;;;;;;7.97;3.83;;;1.50;99.20;;;0.93;100.00;99417.09;4962439;28;20051;-66
2023/02/08 10:28:22;;;;;;;8.90;4.15;;;1.50;97.70;;;1.13;100.00;99426.97;4944075;28;20050;-66